Terminal Aerodrome Forecast
Issued by NWS Blacksburg, VA

Current Version | Previous Version | Graphics & Text | Print | Product List | Glossary On
Versions: 1 2 3 4 5 6 7 8 9 10 11 12 13 14 15 16 17 18 19 20 21 22 23 24 25 26 27 28 29 30 31 32 33 34
492
FTUS41 KRNK 231405 AAC
TAFBLF
TAF AMD
KBLF 231405Z 2314/2412 26007KT P6SM SCT006 BKN009 OVC028
     FM231600 31005KT P6SM BKN025
     FM231800 32006KT P6SM VCTS BKN050CB
     FM240100 31004KT P6SM SCT120=

USA.gov is the U.S. government's official web portal to all federal, state and local government web resources and services.